Caja Empress — V7JH6 — position and weather

sailwx.info

Track history (hours):
 
Tides and Currents Weather Stations Pressure Air Temp Water Temp Dewpoint Dewpoint Depression Visibility Wind Speed Wind Dir Waves Ship Positions

Caja Empress

Last reported at 2017-Aug-31 18:38 UTC. Time now 2017-Sep-21 12:31 UTC.
Position N 09°39' W 079°59'.
Warning: this ship's position is 20 days out of date.

Length 100 m; draft 4.6 m.

Type: Cargo ship. MMSI: 538002520.

Date/timePositionNaut miles runAvg speedWind from/ knotsBaromVisibWave heightAir tempDewpointWater temp
2017-Aug-31 18:38N 09°39' W 079°59'212.5
2017-Aug-31 18:27N 09°37' W 079°58'612.3
2017-Aug-31 18:00N 09°32' W 079°55'612.4
2017-Aug-31 17:30N 09°26' W 079°55'510.1
2017-Aug-31 17:00N 09°21' W 079°55'4 7.0
2017-Aug-31 16:30N 09°17' W 079°55'1 1.3
2017-Aug-31 16:00N 09°17' W 079°55'0 0.5
2017-Aug-31 15:30N 09°16' W 079°55'0 0.5
2017-Aug-31 15:00N 09°16' W 079°55'1 1.8
2017-Aug-31 14:30N 09°15' W 079°55'2 3.4
2017-Aug-31 14:00N 09°14' W 079°56'0 0.1
2017-Aug-31 13:28N 09°14' W 079°56'0 0.1
2017-Aug-31 12:58N 09°13' W 079°56'0 0.2
2017-Aug-31 12:28N 09°13' W 079°56'0 0.2
2017-Aug-31 11:58N 09°13' W 079°56'1 1.3
2017-Aug-31 11:30N 09°13' W 079°55'4 8.3
2017-Aug-31 11:00N 09°11' W 079°52'510.2
2017-Aug-31 10:29N 09°07' W 079°48'6 9.8
2017-Aug-31 09:52N 09°07' W 079°42'3 7.3
2017-Aug-31 09:29N 09°04' W 079°40'5 1.2
2017-Aug-31 05:30N 09°01' W 079°37'0 0.0
2017-Aug-31 04:51N 09°01' W 079°37'13 0.6
2017-Aug-30 09:16N 08°52' W 079°29'  
Track history (hours):
 
Tides and Currents Weather Stations Pressure Air Temp Water Temp Dewpoint Dewpoint Depression Visibility Wind Speed Wind Dir Waves Ship Positions

Caja Empress

Last reported at 2017-Aug-31 18:38 UTC. Time now 2017-Sep-21 12:31 UTC.
Position N 09°39' W 079°59'.
Warning: this ship's position is 20 days out of date.

Length 100 m; draft 4.6 m.

Type: Cargo ship. MMSI: 538002520.

Date/timePositionNaut miles runAvg speedWind from/ knotsBaromVisibWave heightAir tempDewpointWater temp
2017-Aug-31 18:38N 09°39' W 079°59'212.5
2017-Aug-31 18:27N 09°37' W 079°58'612.3
2017-Aug-31 18:00N 09°32' W 079°55'612.4
2017-Aug-31 17:30N 09°26' W 079°55'510.1
2017-Aug-31 17:00N 09°21' W 079°55'4 7.0
2017-Aug-31 16:30N 09°17' W 079°55'1 1.3
2017-Aug-31 16:00N 09°17' W 079°55'0 0.5
2017-Aug-31 15:30N 09°16' W 079°55'0 0.5
2017-Aug-31 15:00N 09°16' W 079°55'1 1.8
2017-Aug-31 14:30N 09°15' W 079°55'2 3.4
2017-Aug-31 14:00N 09°14' W 079°56'0 0.1
2017-Aug-31 13:28N 09°14' W 079°56'0 0.1
2017-Aug-31 12:58N 09°13' W 079°56'0 0.2
2017-Aug-31 12:28N 09°13' W 079°56'0 0.2
2017-Aug-31 11:58N 09°13' W 079°56'1 1.3
2017-Aug-31 11:30N 09°13' W 079°55'4 8.3
2017-Aug-31 11:00N 09°11' W 079°52'510.2
2017-Aug-31 10:29N 09°07' W 079°48'6 9.8
2017-Aug-31 09:52N 09°07' W 079°42'3 7.3
2017-Aug-31 09:29N 09°04' W 079°40'5 1.2
2017-Aug-31 05:30N 09°01' W 079°37'0 0.0
2017-Aug-31 04:51N 09°01' W 079°37'13 0.6
2017-Aug-30 09:16N 08°52' W 079°29'  

Dump ship's entire track history